Time;durP1;ratioP1;P1;durP2;ratioP2;P2;SDS_P1;SDS_P2;PMS_P1;PMS_P2;Temp;Humidity;BMP_temperature;BMP_pressure;BME280_temperature;BME280_humidity;BME280_pressure;Samples;Min_cycle;Max_cycle;Signal;HPM_P1;HPM_P2
2022/09/11 00:00:33;;;;;;;17.73;13.23;;;15.20;99.90;;;;;;5034647;28;20485;-77
2022/09/11 00:03:00;;;;;;;15.20;13.17;;;15.10;99.90;;;;;;5034552;28;20474;-77
2022/09/11 00:05:27;;;;;;;13.50;12.10;;;15.10;99.90;;;;;;5041924;28;20449;-77
2022/09/11 00:07:55;;;;;;;16.77;13.20;;;15.10;99.90;;;;;;5042120;28;20443;-76
2022/09/11 00:10:23;;;;;;;14.83;12.67;;;15.10;99.90;;;;;;5034675;28;20431;-76
2022/09/11 00:12:50;;;;;;;13.20;11.80;;;15.10;99.90;;;;;;5036736;28;20486;-76
2022/09/11 00:15:16;;;;;;;12.60;11.30;;;15.10;99.90;;;;;;5047553;28;20433;-77
2022/09/11 00:17:43;;;;;;;13.77;12.10;;;15.10;99.90;;;;;;5034282;28;20454;-76
2022/09/11 00:20:10;;;;;;;15.47;11.93;;;15.00;99.90;;;;;;5034052;28;21013;-76
2022/09/11 00:22:36;;;;;;;17.87;13.30;;;15.10;99.90;;;;;;5034588;28;20516;-76
2022/09/11 00:25:05;;;;;;;15.10;13.00;;;15.10;99.90;;;;;;5046119;28;20898;-76
2022/09/11 00:27:32;;;;;;;14.37;12.13;;;15.10;99.90;;;;;;5040420;28;20502;-76
2022/09/11 00:30:00;;;;;;;15.73;13.30;;;15.10;99.90;;;;;;5034199;28;20507;-76
2022/09/11 00:32:27;;;;;;;16.63;13.23;;;15.10;99.90;;;;;;5035836;28;20500;-76
2022/09/11 00:34:54;;;;;;;14.80;12.40;;;15.00;99.90;;;;;;5053170;28;20523;-76
2022/09/11 00:37:21;;;;;;;17.77;14.57;;;15.00;99.90;;;;;;5053050;28;21022;-76
2022/09/11 00:39:48;;;;;;;16.37;13.83;;;15.00;99.90;;;;;;5043712;28;20472;-77
2022/09/11 00:42:16;;;;;;;16.03;13.90;;;15.00;99.90;;;;;;5034434;28;20466;-76
2022/09/11 00:45:01;;;;;;;15.43;13.30;;;15.00;99.90;;;;;;5051483;28;20461;-77
2022/09/11 00:47:30;;;;;;;18.70;13.60;;;15.00;99.90;;;;;;5053261;28;20454;-76
2022/09/11 00:50:06;;;;;;;19.33;15.07;;;15.00;99.90;;;;;;5053364;28;20445;-77
2022/09/11 00:52:37;;;;;;;17.10;13.40;;;15.00;99.90;;;;;;5053456;28;20459;-77
2022/09/11 00:55:09;;;;;;;15.67;13.43;;;15.00;99.90;;;;;;5033526;28;20424;-77
2022/09/11 00:57:42;;;;;;;16.23;14.17;;;15.00;99.90;;;;;;5046725;28;20493;-77
2022/09/11 01:00:11;;;;;;;15.90;13.83;;;15.00;99.90;;;;;;5032951;28;21005;-77
2022/09/11 01:02:40;;;;;;;22.50;14.33;;;15.00;99.90;;;;;;5033598;28;20477;-76
2022/09/11 01:05:08;;;;;;;16.30;13.90;;;15.00;99.90;;;;;;5041247;28;20549;-76
2022/09/11 01:07:36;;;;;;;15.73;13.10;;;15.00;99.90;;;;;;5040594;28;21011;-77
2022/09/11 01:10:04;;;;;;;18.00;13.50;;;15.00;99.90;;;;;;5033195;28;20453;-77
2022/09/11 01:12:42;;;;;;;19.67;12.60;;;15.00;99.90;;;;;;5033500;28;20466;-76
2022/09/11 01:15:19;;;;;;;15.67;14.07;;;15.10;99.90;;;;;;5043459;28;20517;-76
2022/09/11 01:17:54;;;;;;;17.60;14.03;;;15.10;99.90;;;;;;5048787;28;20461;-76
2022/09/11 01:20:35;;;;;;;16.93;13.43;;;15.00;99.90;;;;;;5051258;28;20481;-77
2022/09/11 01:23:19;;;;;;;18.40;14.40;;;15.00;99.90;;;;;;5052374;28;20477;-77
2022/09/11 01:26:05;;;;;;;19.10;13.60;;;15.00;99.90;;;;;;5043969;28;20458;-76
2022/09/11 01:28:38;;;;;;;15.13;13.50;;;15.00;99.90;;;;;;5032546;28;20450;-76
2022/09/11 01:31:10;;;;;;;18.60;14.73;;;15.00;99.90;;;;;;5035180;28;20477;-76
2022/09/11 01:33:41;;;;;;;17.70;14.03;;;15.00;99.90;;;;;;5052583;28;20527;-76
2022/09/11 01:36:13;;;;;;;15.97;13.40;;;15.10;99.90;;;;;;5042219;28;20484;-77
2022/09/11 01:38:45;;;;;;;18.73;14.70;;;15.00;99.90;;;;;;5033002;28;20468;-77
2022/09/11 01:41:15;;;;;;;20.63;14.17;;;15.00;99.90;;;;;;5044217;28;21000;-77
2022/09/11 01:43:51;;;;;;;17.13;14.07;;;15.00;99.90;;;;;;5037151;28;20532;-77
2022/09/11 01:46:21;;;;;;;16.47;13.80;;;15.00;99.90;;;;;;5043477;28;20508;-76
2022/09/11 01:48:55;;;;;;;16.90;14.40;;;15.00;99.90;;;;;;5036114;28;20509;-76
2022/09/11 01:51:28;;;;;;;15.60;12.70;;;15.00;99.90;;;;;;5032583;28;20505;-76
2022/09/11 01:53:58;;;;;;;16.70;13.40;;;15.00;99.90;;;;;;5041245;28;20536;-76
2022/09/11 01:56:30;;;;;;;17.47;13.17;;;15.00;99.90;;;;;;5047165;28;20546;-77
2022/09/11 01:59:02;;;;;;;16.60;13.13;;;15.00;99.90;;;;;;5048492;28;20465;-77
2022/09/11 02:01:32;;;;;;;17.60;13.27;;;14.90;99.90;;;;;;5032311;28;21009;-77
2022/09/11 02:04:06;;;;;;;14.67;12.73;;;14.90;99.90;;;;;;5032512;28;20528;-77
2022/09/11 02:06:37;;;;;;;19.87;13.40;;;15.00;99.90;;;;;;5037321;28;20457;-77
2022/09/11 02:09:09;;;;;;;16.87;12.13;;;15.00;99.90;;;;;;5050038;28;21006;-77
2022/09/11 02:11:39;;;;;;;15.07;13.37;;;15.00;99.90;;;;;;5032478;28;20888;-77
2022/09/11 02:14:13;;;;;;;18.80;13.00;;;15.00;99.90;;;;;;5031869;28;20568;-76
2022/09/11 02:16:49;;;;;;;16.03;12.53;;;15.00;99.90;;;;;;5031892;28;20862;-76
2022/09/11 02:19:18;;;;;;;16.60;12.47;;;15.00;99.90;;;;;;5043069;28;20961;-76
2022/09/11 02:21:46;;;;;;;13.70;11.70;;;15.00;99.90;;;;;;5051234;28;21012;-76
2022/09/11 02:24:13;;;;;;;14.70;12.00;;;15.00;99.90;;;;;;5040929;28;20482;-77
2022/09/11 02:26:44;;;;;;;16.20;11.30;;;15.00;99.90;;;;;;5031912;28;20524;-77
2022/09/11 02:29:13;;;;;;;14.73;12.37;;;15.00;99.90;;;;;;5032022;28;20504;-76
2022/09/11 02:31:41;;;;;;;15.67;12.60;;;15.00;99.90;;;;;;5045983;28;20461;-76
2022/09/11 02:34:09;;;;;;;14.53;12.50;;;14.90;99.90;;;;;;5049280;28;20546;-76
2022/09/11 02:36:53;;;;;;;16.33;13.17;;;14.90;99.90;;;;;;5050671;28;20941;-77
2022/09/11 02:39:34;;;;;;;17.63;13.63;;;14.90;99.90;;;;;;5051406;28;20457;-77
2022/09/11 02:42:15;;;;;;;17.20;14.37;;;14.80;99.90;;;;;;5049664;28;20897;-76
2022/09/11 02:44:50;;;;;;;18.00;14.80;;;14.80;99.90;;;;;;5032114;28;20457;-76
2022/09/11 02:47:25;;;;;;;19.50;14.63;;;14.80;99.90;;;;;;5031900;28;20462;-76
2022/09/11 02:50:05;;;;;;;21.27;15.30;;;14.80;99.90;;;;;;5039120;28;20514;-77
2022/09/11 02:52:44;;;;;;;21.10;16.43;;;14.70;99.90;;;;;;5046908;28;21008;-77
2022/09/11 02:55:17;;;;;;;26.37;17.20;;;14.70;99.90;;;;;;5048926;28;20507;-77
2022/09/11 02:57:51;;;;;;;24.03;16.40;;;14.70;99.90;;;;;;5051084;28;20464;-75
2022/09/11 03:00:19;;;;;;;21.33;15.50;;;14.80;99.90;;;;;;5051491;28;20525;-75
2022/09/11 03:02:47;;;;;;;20.73;16.07;;;14.80;99.90;;;;;;5045507;28;20489;-75
2022/09/11 03:05:14;;;;;;;23.07;17.50;;;14.80;99.90;;;;;;5032546;28;20504;-75
2022/09/11 03:07:41;;;;;;;22.80;16.87;;;14.80;99.90;;;;;;5032849;28;20972;-75
2022/09/11 03:10:10;;;;;;;26.27;17.70;;;14.80;99.90;;;;;;5031326;28;20982;-75
2022/09/11 03:12:36;;;;;;;25.77;18.70;;;14.80;99.90;;;;;;5043071;28;20473;-75
2022/09/11 03:15:04;;;;;;;25.60;17.43;;;14.80;99.90;;;;;;5031375;28;20458;-75
2022/09/11 03:17:32;;;;;;;25.07;17.83;;;14.80;99.90;;;;;;5031668;28;20462;-75
2022/09/11 03:19:59;;;;;;;25.80;17.87;;;14.80;99.90;;;;;;5031593;28;20504;-75
2022/09/11 03:22:25;;;;;;;21.90;17.20;;;14.80;99.90;;;;;;5039733;28;20535;-75
2022/09/11 03:24:52;;;;;;;24.30;17.37;;;14.80;99.90;;;;;;5031427;28;20454;-75
2022/09/11 03:27:20;;;;;;;21.87;16.87;;;14.80;99.90;;;;;;5031137;28;20458;-75
2022/09/11 03:29:47;;;;;;;25.00;18.40;;;14.80;99.90;;;;;;5031181;28;20457;-75
2022/09/11 03:32:15;;;;;;;30.10;17.50;;;14.80;99.90;;;;;;5032316;28;20446;-76
2022/09/11 03:34:42;;;;;;;24.80;17.77;;;14.80;99.90;;;;;;5050533;28;20453;-76
2022/09/11 03:37:09;;;;;;;24.60;16.70;;;14.70;99.90;;;;;;5041893;28;20454;-76
2022/09/11 03:39:36;;;;;;;25.73;17.43;;;14.70;99.90;;;;;;5050673;28;20945;-76
2022/09/11 03:42:02;;;;;;;29.43;17.70;;;14.70;99.90;;;;;;5050327;28;20535;-76
2022/09/11 03:44:29;;;;;;;23.83;17.70;;;14.80;99.90;;;;;;5031693;28;20469;-76
2022/09/11 03:46:56;;;;;;;20.80;16.37;;;14.70;99.90;;;;;;5030877;28;20453;-76
2022/09/11 03:49:22;;;;;;;25.97;17.83;;;14.70;99.90;;;;;;5031361;28;20461;-76
2022/09/11 03:51:50;;;;;;;26.40;18.70;;;14.70;99.90;;;;;;5031280;28;20485;-76
2022/09/11 03:54:17;;;;;;;27.60;18.87;;;14.80;99.90;;;;;;5051343;28;20670;-76
2022/09/11 03:56:44;;;;;;;24.93;18.93;;;14.70;99.90;;;;;;5053460;28;20453;-75
2022/09/11 03:59:11;;;;;;;23.10;17.90;;;14.70;99.90;;;;;;5054087;28;20487;-75
2022/09/11 04:01:38;;;;;;;26.13;17.43;;;14.70;99.90;;;;;;5054066;28;20484;-75
2022/09/11 04:04:05;;;;;;;25.80;18.50;;;14.80;99.90;;;;;;5052418;28;20477;-75
2022/09/11 04:06:32;;;;;;;28.97;19.33;;;14.80;99.90;;;;;;5034874;28;20845;-75
2022/09/11 04:09:00;;;;;;;34.00;19.20;;;14.70;99.90;;;;;;5036980;28;20529;-75
2022/09/11 04:11:26;;;;;;;33.40;18.17;;;14.70;99.90;;;;;;5034225;28;20457;-75
2022/09/11 04:13:53;;;;;;;25.13;19.37;;;14.70;99.90;;;;;;5034486;28;20474;-75
2022/09/11 04:16:20;;;;;;;23.63;18.07;;;14.70;99.90;;;;;;5041058;28;20450;-75
2022/09/11 04:18:48;;;;;;;29.53;19.40;;;14.70;99.90;;;;;;5041187;28;20446;-75
2022/09/11 04:21:17;;;;;;;26.10;19.47;;;14.70;99.90;;;;;;5034177;28;20493;-75
2022/09/11 04:23:44;;;;;;;29.13;20.73;;;14.70;99.90;;;;;;5034314;28;20478;-75
2022/09/11 04:26:17;;;;;;;29.37;19.23;;;14.70;99.90;;;;;;5034209;28;20532;-75
2022/09/11 04:28:44;;;;;;;29.90;20.40;;;14.70;99.90;;;;;;5033948;28;20473;-75
2022/09/11 04:31:13;;;;;;;32.17;20.57;;;14.60;99.90;;;;;;5034033;28;20504;-75
2022/09/11 04:33:40;;;;;;;33.17;21.13;;;14.60;99.90;;;;;;5044197;28;20568;-77
2022/09/11 04:36:07;;;;;;;33.73;21.93;;;14.60;99.90;;;;;;5053071;28;20453;-76
2022/09/11 04:38:34;;;;;;;32.90;21.57;;;14.60;99.90;;;;;;5050237;28;20512;-76
2022/09/11 04:41:01;;;;;;;31.10;21.57;;;14.60;99.90;;;;;;5033642;28;21009;-76
2022/09/11 04:43:31;;;;;;;32.00;22.17;;;14.60;99.90;;;;;;5043285;28;20481;-76
2022/09/11 04:46:01;;;;;;;31.43;20.80;;;14.60;99.90;;;;;;5044406;28;20460;-76
2022/09/11 04:48:28;;;;;;;33.63;22.10;;;14.60;99.90;;;;;;5035177;28;20462;-76
2022/09/11 04:51:02;;;;;;;31.80;21.10;;;14.60;99.90;;;;;;5052515;28;20511;-76
2022/09/11 04:53:30;;;;;;;35.13;21.10;;;14.60;99.90;;;;;;5043194;28;21019;-76
2022/09/11 04:56:05;;;;;;;33.63;22.80;;;14.60;99.90;;;;;;5038516;28;20458;-76
2022/09/11 04:58:33;;;;;;;32.77;21.10;;;14.50;99.90;;;;;;5045060;28;20452;-76
2022/09/11 05:01:00;;;;;;;40.33;23.87;;;14.50;99.90;;;;;;5048130;28;20481;-75
2022/09/11 05:03:28;;;;;;;39.20;23.60;;;14.50;99.90;;;;;;5032673;28;20482;-76
2022/09/11 05:05:55;;;;;;;33.87;23.50;;;14.40;99.90;;;;;;5032953;28;20492;-76
2022/09/11 05:08:25;;;;;;;36.57;24.90;;;14.40;99.90;;;;;;5041042;28;20556;-76
2022/09/11 05:10:52;;;;;;;38.50;24.50;;;14.40;99.90;;;;;;5037301;28;20450;-76
2022/09/11 05:13:18;;;;;;;36.50;23.43;;;14.40;99.90;;;;;;5052109;28;20985;-75
2022/09/11 05:15:46;;;;;;;45.00;26.20;;;14.50;99.90;;;;;;5033064;28;20454;-75
2022/09/11 05:18:13;;;;;;;45.17;26.03;;;14.50;99.90;;;;;;5033119;28;20446;-75
2022/09/11 05:20:40;;;;;;;37.37;24.87;;;14.50;99.90;;;;;;5035177;28;20984;-75
2022/09/11 05:23:07;;;;;;;37.97;23.90;;;14.50;99.90;;;;;;5038458;28;20482;-75
2022/09/11 05:25:35;;;;;;;38.73;24.93;;;14.50;99.90;;;;;;5033012;28;20542;-75
2022/09/11 05:28:03;;;;;;;43.27;26.03;;;14.50;99.90;;;;;;5033506;28;20459;-74
2022/09/11 05:30:30;;;;;;;36.90;25.00;;;14.60;99.90;;;;;;5033364;28;20454;-73
2022/09/11 05:32:58;;;;;;;31.30;19.13;;;14.70;99.90;;;;;;5039450;28;20474;-73
2022/09/11 05:35:25;;;;;;;34.07;22.60;;;14.80;99.90;;;;;;5032648;28;20907;-73
2022/09/11 05:37:52;;;;;;;35.63;23.23;;;14.90;99.90;;;;;;5032835;28;20508;-73
2022/09/11 05:40:18;;;;;;;36.23;24.20;;;15.00;99.90;;;;;;5032970;28;20546;-73
2022/09/11 05:42:45;;;;;;;35.77;22.90;;;15.20;99.90;;;;;;5042707;28;21013;-73
2022/09/11 05:45:11;;;;;;;40.70;24.53;;;15.30;99.90;;;;;;5050701;28;20449;-73
2022/09/11 05:47:38;;;;;;;37.97;25.07;;;15.30;99.90;;;;;;5050019;28;21003;-74
2022/09/11 05:50:08;;;;;;;38.50;25.27;;;15.50;99.90;;;;;;5032503;28;20955;-74
2022/09/11 05:52:34;;;;;;;42.67;25.93;;;15.70;99.90;;;;;;5040922;28;20458;-73
2022/09/11 05:55:01;;;;;;;40.87;25.30;;;15.90;99.90;;;;;;5037223;28;20457;-73
2022/09/11 05:57:28;;;;;;;38.60;25.17;;;16.20;99.90;;;;;;5032200;28;20425;-73
2022/09/11 05:59:54;;;;;;;37.57;24.60;;;16.50;99.90;;;;;;5032462;28;20466;-73
2022/09/11 06:02:21;;;;;;;31.70;22.07;;;16.70;99.90;;;;;;5041746;28;20539;-73
2022/09/11 06:04:47;;;;;;;31.07;21.90;;;17.00;99.90;;;;;;5051172;28;21128;-74
2022/09/11 06:07:15;;;;;;;33.60;22.57;;;17.30;99.90;;;;;;5051201;28;20511;-74
2022/09/11 06:09:42;;;;;;;33.00;24.10;;;17.50;99.90;;;;;;5033654;28;21028;-73
2022/09/11 06:12:11;;;;;;;32.60;23.00;;;17.70;99.90;;;;;;5039668;28;20429;-74
2022/09/11 06:14:37;;;;;;;30.43;21.43;;;18.00;99.90;;;;;;5035306;28;21088;-73
2022/09/11 06:17:05;;;;;;;28.70;20.53;;;18.30;99.90;;;;;;5051075;28;20495;-72
2022/09/11 06:19:31;;;;;;;34.33;21.63;;;18.50;99.90;;;;;;5051152;28;20424;-73
2022/09/11 06:21:58;;;;;;;35.63;23.00;;;18.80;99.90;;;;;;5051088;28;20881;-72
2022/09/11 06:24:27;;;;;;;33.07;22.10;;;19.00;99.90;;;;;;5050017;28;20452;-72
2022/09/11 06:26:53;;;;;;;27.00;19.90;;;19.20;99.90;;;;;;5050930;28;20540;-73
2022/09/11 06:29:21;;;;;;;27.77;18.17;;;19.50;99.90;;;;;;5050975;28;20847;-74
2022/09/11 06:31:50;;;;;;;28.53;20.33;;;19.60;99.90;;;;;;5051197;28;20484;-74
2022/09/11 06:34:17;;;;;;;33.33;22.63;;;19.80;99.90;;;;;;5037346;28;20477;-73
2022/09/11 06:36:43;;;;;;;27.83;20.13;;;20.00;99.90;;;;;;5031601;28;20450;-73
2022/09/11 06:39:10;;;;;;;30.93;22.60;;;20.10;99.90;;;;;;5042899;28;20453;-73
2022/09/11 06:41:38;;;;;;;29.43;21.63;;;20.10;99.90;;;;;;5050637;28;20430;-74
2022/09/11 06:44:06;;;;;;;32.43;23.10;;;20.20;99.90;;;;;;5031282;28;20448;-74
2022/09/11 06:46:34;;;;;;;37.30;21.57;;;20.30;99.90;;;;;;5039659;28;20505;-73
2022/09/11 06:49:01;;;;;;;32.50;22.40;;;20.40;99.90;;;;;;5039757;28;21167;-74
2022/09/11 06:51:27;;;;;;;28.47;18.80;;;20.60;99.90;;;;;;5031837;28;20431;-74
2022/09/11 06:53:56;;;;;;;33.67;23.40;;;20.70;99.90;;;;;;5041221;28;20469;-74
2022/09/11 06:56:24;;;;;;;31.23;21.90;;;20.80;99.90;;;;;;5051079;28;20431;-74
2022/09/11 06:58:52;;;;;;;36.43;23.80;;;20.90;99.90;;;;;;5041153;28;20433;-74
2022/09/11 07:01:20;;;;;;;30.63;22.43;;;20.90;99.90;;;;;;5031596;28;20443;-74
2022/09/11 07:03:48;;;;;;;36.37;23.80;;;20.70;99.90;;;;;;5032050;28;20460;-74
2022/09/11 07:06:17;;;;;;;36.40;23.20;;;20.70;99.90;;;;;;5037824;28;20454;-74
2022/09/11 07:08:44;;;;;;;39.70;24.30;;;20.60;99.90;;;;;;5037589;28;20444;-74
2022/09/11 07:11:11;;;;;;;34.60;24.37;;;20.50;99.90;;;;;;5031654;28;20453;-74
2022/09/11 07:13:39;;;;;;;43.13;25.33;;;20.50;99.90;;;;;;5031322;28;20455;-73
2022/09/11 07:16:08;;;;;;;64.23;40.03;;;20.50;99.90;;;;;;5049893;28;20424;-72
2022/09/11 07:18:36;;;;;;;37.07;24.37;;;20.60;99.90;;;;;;5044243;28;20996;-73
2022/09/11 07:21:07;;;;;;;37.53;24.77;;;20.50;99.90;;;;;;5031214;28;20474;-73
2022/09/11 07:23:34;;;;;;;36.40;23.40;;;20.30;99.90;;;;;;5031237;28;20555;-72
2022/09/11 07:26:03;;;;;;;40.27;23.90;;;20.40;99.90;;;;;;5032393;28;20450;-74
2022/09/11 07:28:30;;;;;;;37.30;23.57;;;20.60;99.90;;;;;;5033878;28;20450;-74
2022/09/11 07:31:04;;;;;;;36.73;23.57;;;20.60;99.90;;;;;;5035393;28;20421;-74
2022/09/11 07:33:32;;;;;;;43.17;24.80;;;20.60;99.90;;;;;;5049310;28;20521;-74
2022/09/11 07:35:58;;;;;;;38.67;24.27;;;20.50;99.90;;;;;;5043959;28;20449;-73
2022/09/11 07:38:25;;;;;;;43.50;25.47;;;20.40;99.90;;;;;;5054277;28;20457;-72
2022/09/11 07:40:54;;;;;;;33.50;22.63;;;20.50;99.90;;;;;;5054335;28;20453;-73
2022/09/11 07:43:20;;;;;;;36.40;24.10;;;20.60;99.90;;;;;;5034662;28;20489;-73
2022/09/11 07:45:49;;;;;;;34.80;23.33;;;20.60;99.90;;;;;;5041717;28;20492;-73
2022/09/11 07:48:15;;;;;;;37.53;23.67;;;20.70;99.90;;;;;;5053471;28;20467;-73
2022/09/11 07:50:54;;;;;;;46.40;25.60;;;20.90;99.90;;;;;;5054212;28;20511;-73
2022/09/11 07:53:20;;;;;;;34.60;22.40;;;21.00;99.90;;;;;;5042776;28;20477;-74
2022/09/11 07:55:47;;;;;;;32.90;22.93;;;21.20;99.90;;;;;;5034500;28;20869;-74
2022/09/11 07:58:14;;;;;;;35.27;22.30;;;21.40;99.90;;;;;;5044772;28;20461;-74
2022/09/11 08:00:40;;;;;;;31.70;21.07;;;21.40;99.90;;;;;;5034446;28;20524;-75
2022/09/11 08:03:07;;;;;;;33.83;22.33;;;21.40;99.90;;;;;;5034342;28;20493;-74
2022/09/11 08:05:35;;;;;;;31.77;22.03;;;21.60;99.90;;;;;;5034527;28;20524;-74
2022/09/11 08:08:03;;;;;;;32.70;22.17;;;21.80;99.90;;;;;;5041762;28;20462;-74
2022/09/11 08:10:29;;;;;;;32.50;22.13;;;22.00;99.90;;;;;;5034529;28;20484;-74
2022/09/11 08:12:56;;;;;;;37.90;21.63;;;21.90;99.90;;;;;;5034488;28;20469;-75
2022/09/11 08:15:23;;;;;;;30.70;21.50;;;21.90;99.90;;;;;;5042212;28;20458;-75
2022/09/11 08:17:50;;;;;;;32.23;21.50;;;22.00;99.90;;;;;;5034461;28;20482;-75
2022/09/11 08:20:17;;;;;;;33.00;21.00;;;22.30;99.90;;;;;;5038266;28;20486;-75
2022/09/11 08:22:44;;;;;;;27.97;19.97;;;22.40;99.90;;;;;;5041520;28;21032;-76
2022/09/11 08:25:12;;;;;;;32.73;21.47;;;22.50;99.90;;;;;;5050176;28;20457;-75
2022/09/11 08:27:39;;;;;;;31.23;21.07;;;22.30;99.90;;;;;;5035382;28;20461;-75
2022/09/11 08:30:07;;;;;;;31.63;19.50;;;22.40;99.90;;;;;;5034515;28;20453;-76
2022/09/11 08:32:33;;;;;;;30.03;20.73;;;22.60;99.90;;;;;;5036098;28;20527;-75
2022/09/11 08:35:00;;;;;;;25.80;18.90;;;22.70;99.90;;;;;;5048956;28;20449;-78
2022/09/11 08:37:27;;;;;;;26.07;18.70;;;23.10;99.90;;;;;;5050100;28;20515;-74
2022/09/11 08:39:53;;;;;;;24.83;17.67;;;23.30;99.90;;;;;;5049931;28;20511;-75
2022/09/11 08:42:23;;;;;;;23.77;17.20;;;23.50;99.90;;;;;;5049036;28;20527;-76
2022/09/11 08:44:53;;;;;;;23.73;17.00;;;23.60;99.90;;;;;;5049416;28;20460;-75
2022/09/11 08:47:23;;;;;;;26.60;19.40;;;23.60;99.90;;;;;;5049338;28;20449;-76
2022/09/11 08:49:57;;;;;;;22.77;17.17;;;23.40;99.90;;;;;;5049380;28;20457;-73
2022/09/11 08:52:24;;;;;;;28.73;18.83;;;23.40;99.90;;;;;;5049096;28;20448;-74
2022/09/11 08:54:54;;;;;;;26.37;19.23;;;23.40;99.90;;;;;;5049016;28;20578;-73
2022/09/11 08:57:29;;;;;;;27.47;19.17;;;23.00;99.90;;;;;;5048701;28;20457;-75
2022/09/11 09:00:13;;;;;;;28.67;19.10;;;22.60;99.90;;;;;;5049001;28;20453;-74
2022/09/11 09:03:20;;;;;;;21.77;16.90;;;22.40;99.90;;;;;;5048785;28;21020;-75
2022/09/11 09:05:55;;;;;;;26.70;19.40;;;22.20;99.90;;;;;;5007368;28;20526;-74
2022/09/11 09:08:36;;;;;;;32.87;19.13;;;22.10;99.90;;;;;;5047800;28;20519;-75
2022/09/11 09:11:13;;;;;;;29.03;18.93;;;22.20;99.90;;;;;;5049066;28;20515;-74
2022/09/11 09:13:58;;;;;;;27.43;16.80;;;22.50;99.90;;;;;;5048450;28;20579;-75
2022/09/11 09:16:38;;;;;;;24.67;17.67;;;22.80;99.90;;;;;;5048150;28;20874;-75
2022/09/11 09:19:10;;;;;;;23.27;16.53;;;23.10;99.90;;;;;;5048485;28;20449;-75
2022/09/11 09:21:41;;;;;;;28.03;19.63;;;23.10;99.90;;;;;;5048270;28;20793;-74
2022/09/11 09:24:18;;;;;;;32.13;17.43;;;23.10;99.90;;;;;;5048511;28;20499;-76
2022/09/11 09:26:54;;;;;;;22.40;16.17;;;23.20;99.90;;;;;;5048513;28;20457;-72
2022/09/11 09:29:27;;;;;;;31.30;18.33;;;23.10;99.90;;;;;;5048088;28;20459;-74
2022/09/11 09:31:58;;;;;;;24.33;16.03;;;23.10;99.90;;;;;;5048931;28;20462;-74
2022/09/11 09:34:27;;;;;;;20.57;15.33;;;23.00;99.90;;;;;;5046857;28;21082;-72
2022/09/11 09:37:00;;;;;;;19.00;14.30;;;22.80;99.90;;;;;;5050687;28;20441;-82
2022/09/11 09:39:28;;;;;;;26.77;15.87;;;22.70;99.90;;;;;;5053468;28;20495;-74
2022/09/11 09:42:27;;;;;;;23.00;15.10;;;22.50;99.90;;;;;;5047682;28;20871;-76
2022/09/11 09:45:19;;;;;;;19.40;13.97;;;22.30;99.90;;;;;;5049060;28;20668;-75
2022/09/11 09:47:48;;;;;;;19.70;14.10;;;22.10;99.90;;;;;;5047882;28;20557;-76
2022/09/11 09:50:19;;;;;;;22.50;16.70;;;22.00;99.90;;;;;;5047959;28;20454;-76
2022/09/11 09:52:47;;;;;;;22.27;16.67;;;21.80;99.90;;;;;;5048561;28;20461;-77
2022/09/11 09:55:16;;;;;;;26.40;16.63;;;21.70;99.90;;;;;;5046638;28;21008;-74
2022/09/11 09:57:43;;;;;;;26.20;16.87;;;21.70;99.90;;;;;;5048411;28;20468;-76
2022/09/11 10:00:18;;;;;;;30.27;17.70;;;21.60;99.90;;;;;;5047900;28;20453;-76
2022/09/11 10:02:49;;;;;;;21.87;15.17;;;21.70;99.90;;;;;;5046682;28;20476;-77
2022/09/11 10:05:19;;;;;;;21.17;15.57;;;22.20;99.90;;;;;;5048510;28;20464;-77
2022/09/11 10:07:51;;;;;;;24.17;17.00;;;22.90;99.90;;;;;;5046163;28;20500;-76
2022/09/11 10:10:27;;;;;;;25.40;16.20;;;23.30;99.90;;;;;;5047740;28;20977;-77
2022/09/11 10:12:55;;;;;;;24.50;14.67;;;23.20;99.90;;;;;;5048654;28;20473;-78
2022/09/11 10:15:24;;;;;;;20.30;14.30;;;23.10;99.90;;;;;;5048559;28;20503;-78
2022/09/11 10:17:52;;;;;;;22.63;13.87;;;23.10;99.90;;;;;;5050602;28;20453;-79
2022/09/11 10:20:27;;;;;;;18.93;12.87;;;23.10;99.90;;;;;;5047793;28;20460;-76
2022/09/11 10:22:55;;;;;;;22.97;14.77;;;23.10;99.90;;;;;;5046671;28;20556;-76
2022/09/11 10:25:25;;;;;;;23.00;15.20;;;23.00;99.90;;;;;;5047374;28;20965;-76
2022/09/11 10:28:03;;;;;;;19.33;13.90;;;22.90;99.90;;;;;;5046917;28;20960;-77
2022/09/11 10:30:34;;;;;;;20.07;12.93;;;22.80;99.90;;;;;;5046513;28;20537;-77
2022/09/11 10:33:05;;;;;;;15.90;12.23;;;22.80;99.90;;;;;;5046907;28;20568;-76
2022/09/11 10:35:34;;;;;;;19.73;13.33;;;23.00;99.90;;;;;;5046554;28;20452;-76
2022/09/11 10:38:11;;;;;;;17.47;12.97;;;23.10;99.90;;;;;;5047786;28;20481;-76
2022/09/11 10:40:39;;;;;;;17.37;12.67;;;23.30;99.90;;;;;;5046915;28;20441;-75
2022/09/11 10:43:07;;;;;;;18.20;12.57;;;23.80;99.90;;;;;;5047700;28;20852;-76
2022/09/11 10:45:34;;;;;;;16.70;12.17;;;24.30;99.90;;;;;;5047310;28;20456;-75
2022/09/11 10:48:16;;;;;;;17.37;12.00;;;24.60;99.90;;;;;;5047074;28;20450;-73
2022/09/11 10:50:43;;;;;;;18.57;11.87;;;24.80;99.90;;;;;;5046934;28;20460;-77
2022/09/11 10:53:17;;;;;;;15.47;10.03;;;24.50;99.90;;;;;;5047116;28;20477;-77
2022/09/11 10:55:51;;;;;;;13.83;10.60;;;24.50;99.90;;;;;;5046387;28;20511;-75
2022/09/11 10:58:22;;;;;;;14.40;10.63;;;24.80;99.90;;;;;;5048165;28;20469;-78
2022/09/11 11:00:51;;;;;;;13.03;9.43;;;25.00;99.90;;;;;;5046766;28;20449;-78
2022/09/11 11:03:22;;;;;;;12.77;10.63;;;25.10;99.90;;;;;;5049458;28;20977;-76
2022/09/11 11:06:03;;;;;;;13.43;10.00;;;25.30;99.90;;;;;;5050636;28;20453;-77
2022/09/11 11:09:01;;;;;;;14.70;9.83;;;25.40;99.90;;;;;;5050395;28;21172;-77
2022/09/11 11:11:41;;;;;;;10.63;7.57;;;25.00;99.90;;;;;;5051109;28;20962;-77
2022/09/11 11:14:24;;;;;;;11.03;8.60;;;25.20;99.90;;;;;;5050738;28;20556;-77
2022/09/11 11:16:59;;;;;;;12.83;8.40;;;25.10;99.90;;;;;;5049272;28;20448;-77
2022/09/11 11:19:46;;;;;;;10.50;9.07;;;25.00;99.90;;;;;;5051550;28;20448;-77
2022/09/11 11:22:28;;;;;;;11.40;8.57;;;25.10;99.90;;;;;;5050365;28;20507;-77
2022/09/11 11:25:07;;;;;;;13.67;9.40;;;25.30;99.90;;;;;;5050572;28;20550;-77
2022/09/11 11:27:52;;;;;;;13.17;9.30;;;25.20;99.90;;;;;;5050656;28;20863;-77
2022/09/11 11:30:21;;;;;;;11.67;8.97;;;24.90;99.90;;;;;;5050444;28;20918;-77
2022/09/11 11:33:09;;;;;;;14.37;10.00;;;24.50;99.90;;;;;;5050638;28;20469;-77
2022/09/11 11:35:45;;;;;;;16.83;9.57;;;24.20;99.90;;;;;;5050294;28;21065;-77
2022/09/11 11:38:21;;;;;;;11.00;8.77;;;23.80;99.90;;;;;;5050855;28;20464;-77
2022/09/11 11:40:52;;;;;;;16.27;10.77;;;23.60;99.90;;;;;;5050855;28;20965;-76
2022/09/11 11:43:24;;;;;;;15.63;11.43;;;23.30;99.90;;;;;;5049944;28;20484;-72
2022/09/11 11:45:55;;;;;;;19.17;12.30;;;23.00;99.90;;;;;;5050110;28;20449;-72
2022/09/11 11:48:28;;;;;;;14.47;9.00;;;22.70;99.90;;;;;;5050120;28;20535;-72
2022/09/11 11:50:58;;;;;;;12.03;8.47;;;22.40;99.90;;;;;;5049100;28;20454;-77
2022/09/11 11:53:28;;;;;;;8.53;7.63;;;22.30;99.90;;;;;;5050736;28;20932;-72
2022/09/11 11:56:04;;;;;;;8.53;7.10;;;22.10;99.90;;;;;;5049014;28;20454;-77
2022/09/11 11:58:46;;;;;;;8.30;7.03;;;22.00;99.90;;;;;;5049703;28;20506;-73
2022/09/11 12:01:21;;;;;;;8.93;6.90;;;21.90;99.90;;;;;;5050192;28;20528;-72
2022/09/11 12:03:58;;;;;;;10.70;7.30;;;21.80;99.90;;;;;;5049627;28;21019;-72
2022/09/11 12:06:25;;;;;;;8.50;7.50;;;21.80;99.90;;;;;;5049805;28;20460;-72
2022/09/11 12:08:52;;;;;;;8.00;6.90;;;21.80;99.90;;;;;;5048453;28;20460;-75
2022/09/11 12:11:28;;;;;;;9.33;6.60;;;21.80;99.90;;;;;;5049428;28;20449;-73
2022/09/11 12:13:55;;;;;;;19.33;8.07;;;21.80;99.90;;;;;;5048606;28;20461;-75
2022/09/11 12:16:27;;;;;;;18.63;11.57;;;22.00;99.90;;;;;;5052308;28;20502;-77
2022/09/11 12:19:07;;;;;;;7.57;6.30;;;22.40;99.90;;;;;;5049721;28;20449;-78
2022/09/11 12:21:40;;;;;;;8.50;6.50;;;23.20;99.90;;;;;;5050688;28;20509;-75
2022/09/11 12:24:14;;;;;;;9.83;6.37;;;23.20;99.90;;;;;;5048998;28;20476;-78
2022/09/11 12:26:40;;;;;;;13.60;7.97;;;22.90;99.90;;;;;;5051535;28;20445;-80
2022/09/11 12:29:50;;;;;;;9.68;6.80;;;22.70;99.90;;;;;;5050218;28;20493;-78
2022/09/11 12:32:41;;;;;;;9.10;7.10;;;22.50;99.90;;;;;;5048954;28;20576;-73
2022/09/11 12:35:33;;;;;;;11.40;7.03;;;22.40;99.90;;;;;;5046408;28;20461;-72
2022/09/11 12:38:04;;;;;;;8.90;7.97;;;22.90;99.90;;;;;;5044567;28;20461;-76
2022/09/11 12:40:37;;;;;;;9.73;8.50;;;23.50;99.90;;;;;;5050332;28;20536;-79
2022/09/11 12:43:38;;;;;;;11.10;7.87;;;23.90;99.90;;;;;;5050115;28;20465;-78
2022/09/11 12:46:08;;;;;;;12.70;7.50;;;23.90;99.90;;;;;;5047194;28;20461;-79